Catacamas, Honduras
Current Conditions -  °F | °C
As of 6:00 PM on Monday 24 Nov 2014 (Local Time) from MHCA Reporting Station
Broken Clouds Broken Clouds  
Wind Chill: 79°   Ceiling: 3000
Heat Index: 82°   Visibility: 6mi
Dew Point: 73°   Wind: 2mph
Humidity: 83%   Direction: 20°NNE
Pressure: 29.91"   Gusts: NA
Location:  14.85°N, 85.89°W
Report Text: MHCA 250000Z 02002KT 9999 BKN030CB BKN070 26/23 Q1013 CB NEETCUTDS HZ
Loading
Personal Weather Stations






























Interactive Weather Map New forecast layout! Learn more

10-Day Weather Forecast

Advertisements
Track Severe Weather on mobile